createdAt,value
2018-10-02T00:03:11.868Z,8.90
2018-10-02T00:08:06.325Z,8.90
2018-10-02T00:13:06.032Z,9.00
2018-10-02T00:18:00.474Z,9.00
2018-10-02T00:22:55.559Z,9.00
2018-10-02T00:27:50.015Z,9.00
2018-10-02T00:32:44.437Z,9.00
2018-10-02T00:37:38.900Z,9.00
2018-10-02T00:42:33.347Z,9.00
2018-10-02T00:47:27.856Z,9.00
2018-10-02T00:52:22.328Z,9.10
2018-10-02T00:57:16.751Z,9.10
2018-10-02T01:02:11.195Z,9.10
2018-10-02T01:07:05.624Z,9.10
2018-10-02T01:12:00.026Z,9.10
2018-10-02T01:16:54.473Z,9.00
2018-10-02T01:21:48.897Z,9.00
2018-10-02T01:26:43.602Z,9.00
2018-10-02T01:31:38.107Z,9.00
2018-10-02T01:36:32.560Z,9.00
2018-10-02T01:41:27.006Z,9.10
2018-10-02T01:46:21.456Z,9.00
2018-10-02T01:51:15.931Z,9.10
2018-10-02T01:56:10.489Z,9.00
2018-10-02T02:01:04.912Z,9.00
2018-10-02T02:05:59.345Z,9.00
2018-10-02T02:10:53.769Z,9.00
2018-10-02T02:15:48.229Z,9.00
2018-10-02T02:20:42.654Z,9.10
2018-10-02T02:25:37.135Z,9.10
2018-10-02T02:30:31.588Z,9.10
2018-10-02T02:35:26.027Z,9.10
2018-10-02T02:40:20.508Z,9.10
2018-10-02T02:45:15.183Z,8.90
2018-10-02T02:50:14.969Z,8.90
2018-10-02T02:55:09.904Z,8.90
2018-10-02T03:00:04.836Z,8.90
2018-10-02T03:04:59.268Z,8.90
2018-10-02T03:09:53.706Z,8.80
2018-10-02T03:14:48.147Z,8.80
2018-10-02T03:19:42.556Z,8.80
2018-10-02T03:24:37.008Z,8.80
2018-10-02T03:29:31.439Z,8.80
2018-10-02T03:34:25.876Z,8.90
2018-10-02T03:39:20.324Z,8.90
2018-10-02T03:44:14.755Z,8.90
2018-10-02T03:49:09.179Z,8.90
2018-10-02T03:54:03.602Z,9.00
2018-10-02T03:58:58.031Z,9.00
2018-10-02T04:03:52.444Z,9.00
2018-10-02T04:08:46.904Z,9.10
2018-10-02T04:13:41.389Z,9.10
2018-10-02T04:18:36.278Z,9.10
2018-10-02T04:23:30.737Z,9.10
2018-10-02T04:28:25.232Z,9.20
2018-10-02T04:33:19.816Z,9.20
2018-10-02T04:38:21.127Z,9.20
2018-10-02T04:43:15.587Z,9.20
2018-10-02T04:48:10.111Z,9.30
2018-10-02T04:53:04.543Z,9.30
2018-10-02T04:57:58.961Z,9.30
2018-10-02T05:02:53.380Z,9.40
2018-10-02T05:07:47.808Z,9.40
2018-10-02T05:12:42.239Z,9.40
2018-10-02T05:17:36.792Z,9.50
2018-10-02T05:22:31.582Z,9.50
2018-10-02T05:27:26.083Z,9.50
2018-10-02T05:32:20.675Z,9.60
2018-10-02T05:37:15.116Z,9.60
2018-10-02T05:42:09.853Z,9.60
2018-10-02T05:47:04.289Z,9.70
2018-10-02T05:51:58.730Z,9.80
2018-10-02T05:56:53.183Z,9.80
2018-10-02T06:01:48.030Z,9.80
2018-10-02T06:06:42.513Z,9.90
2018-10-02T06:11:37.362Z,9.90
2018-10-02T06:16:31.809Z,10.00
2018-10-02T06:21:26.267Z,10.00
2018-10-02T06:26:20.732Z,10.10
2018-10-02T06:31:15.232Z,10.10
2018-10-02T06:36:09.879Z,10.20
2018-10-02T06:41:04.596Z,10.20
2018-10-02T06:45:59.135Z,10.40
2018-10-02T06:50:53.647Z,10.70
2018-10-02T06:55:48.254Z,10.70
2018-10-02T07:00:42.957Z,10.60
2018-10-02T07:05:37.661Z,10.40
2018-10-02T07:10:32.275Z,10.30
2018-10-02T07:15:26.724Z,10.30
2018-10-02T07:20:21.184Z,10.30
2018-10-02T07:25:15.814Z,10.30
2018-10-02T07:30:10.734Z,10.40
2018-10-02T07:35:05.484Z,10.40
2018-10-02T07:40:00.235Z,10.40
2018-10-02T07:44:54.715Z,10.50
2018-10-02T07:49:49.321Z,10.40
2018-10-02T07:54:43.824Z,10.40
2018-10-02T07:59:38.920Z,10.50
2018-10-02T08:04:33.517Z,10.50
2018-10-02T08:09:28.288Z,10.50
2018-10-02T08:14:22.838Z,10.50
2018-10-02T08:19:17.484Z,10.50
2018-10-02T08:24:12.109Z,10.50
2018-10-02T08:29:06.579Z,10.60
2018-10-02T08:34:01.179Z,10.60
2018-10-02T08:38:55.903Z,10.70
2018-10-02T08:43:50.563Z,10.70
2018-10-02T08:48:45.344Z,10.80
2018-10-02T08:53:40.075Z,10.90
2018-10-02T08:58:34.785Z,11.00
2018-10-02T09:03:29.250Z,11.00
2018-10-02T09:08:23.945Z,11.10
2018-10-02T09:13:18.778Z,11.10
2018-10-02T09:18:13.249Z,11.10
2018-10-02T09:23:07.720Z,11.20
2018-10-02T09:28:02.357Z,11.20
2018-10-02T09:33:02.463Z,11.40
2018-10-02T09:38:02.474Z,11.50
2018-10-02T09:43:02.250Z,11.60
2018-10-02T09:47:57.144Z,11.70
2018-10-02T09:52:52.151Z,11.70
2018-10-02T09:57:46.937Z,11.80
2018-10-02T10:02:41.760Z,11.80
2018-10-02T10:07:36.418Z,11.80
2018-10-02T10:12:30.917Z,11.80
2018-10-02T10:17:25.467Z,11.70
2018-10-02T10:22:20.745Z,11.60
2018-10-02T10:27:15.234Z,11.60
2018-10-02T10:32:10.046Z,11.50
2018-10-02T10:37:04.534Z,11.60
2018-10-02T10:41:59.244Z,11.50
2018-10-02T10:46:53.885Z,11.50
2018-10-02T10:51:48.472Z,11.40
2018-10-02T10:56:43.060Z,11.40
2018-10-02T11:01:37.584Z,11.40
2018-10-02T11:06:32.086Z,11.40
2018-10-02T11:11:26.703Z,11.40
2018-10-02T11:16:21.272Z,11.50
2018-10-02T11:21:15.724Z,11.60
2018-10-02T11:26:10.232Z,11.70
2018-10-02T11:31:04.881Z,11.70
2018-10-02T11:35:59.635Z,11.70
2018-10-02T11:40:54.130Z,11.80
2018-10-02T11:45:48.905Z,11.80
2018-10-02T11:50:43.831Z,11.90
2018-10-02T11:55:38.616Z,12.00
2018-10-02T12:00:34.037Z,12.10
2018-10-02T12:05:28.618Z,12.10
2018-10-02T12:10:23.116Z,12.20
2018-10-02T12:15:17.709Z,12.40
2018-10-02T12:20:12.494Z,12.50
2018-10-02T12:25:06.969Z,12.60
2018-10-02T12:30:02.311Z,12.70
2018-10-02T12:34:56.865Z,12.80
2018-10-02T12:39:51.322Z,12.90
2018-10-02T12:44:45.790Z,13.10
2018-10-02T12:49:40.360Z,13.20
2018-10-02T12:54:35.021Z,13.40
2018-10-02T12:59:29.526Z,13.60
2018-10-02T13:04:24.449Z,13.80
2018-10-02T13:09:18.911Z,14.00
2018-10-02T13:14:13.416Z,14.30
2018-10-02T13:19:07.927Z,14.40
2018-10-02T13:24:02.362Z,14.30
2018-10-02T13:28:56.816Z,14.30
2018-10-02T13:33:51.346Z,14.10
2018-10-02T13:38:47.048Z,14.00
2018-10-02T13:43:41.521Z,14.00
2018-10-02T13:48:36.570Z,14.00
2018-10-02T13:53:31.004Z,14.10
2018-10-02T13:58:25.810Z,14.10
2018-10-02T14:03:20.249Z,14.20
2018-10-02T14:08:14.815Z,14.50
2018-10-02T14:13:09.395Z,14.60
2018-10-02T14:18:04.394Z,14.60
2018-10-02T14:22:58.844Z,14.60
2018-10-02T14:27:53.336Z,14.50
2018-10-02T14:32:48.168Z,14.40
2018-10-02T14:37:42.642Z,14.20
2018-10-02T14:42:37.304Z,14.10
2018-10-02T14:47:31.897Z,14.10
2018-10-02T14:52:26.353Z,14.10
2018-10-02T14:57:20.992Z,14.20
2018-10-02T15:02:15.734Z,14.20
2018-10-02T15:07:10.563Z,14.50
2018-10-02T15:12:05.113Z,14.70
2018-10-02T15:16:59.945Z,14.80
2018-10-02T15:21:54.932Z,15.00
2018-10-02T15:26:49.426Z,15.00
2018-10-02T15:31:44.080Z,15.00
2018-10-02T15:36:39.071Z,14.80
2018-10-02T15:41:33.765Z,14.80
2018-10-02T15:46:28.451Z,14.90
2018-10-02T15:51:23.083Z,14.90
2018-10-02T15:56:17.544Z,14.90
2018-10-02T16:01:12.208Z,14.90
2018-10-02T16:06:06.693Z,14.80
2018-10-02T16:11:01.174Z,14.90
2018-10-02T16:15:55.820Z,14.80
2018-10-02T16:20:50.245Z,14.80
2018-10-02T16:25:45.041Z,14.80
2018-10-02T16:30:39.938Z,14.80
2018-10-02T16:35:34.716Z,14.60
2018-10-02T16:40:29.255Z,14.50
2018-10-02T16:45:23.795Z,14.40
2018-10-02T16:50:18.265Z,14.20
2018-10-02T16:55:12.927Z,14.10
2018-10-02T17:00:08.561Z,13.80
2018-10-02T17:05:03.106Z,13.60
2018-10-02T17:09:57.948Z,13.40
2018-10-02T17:14:54.622Z,13.30
2018-10-02T17:19:49.520Z,13.10
2018-10-02T17:24:44.107Z,13.00
2018-10-02T17:29:38.976Z,12.90
2018-10-02T17:34:33.468Z,12.80
2018-10-02T17:39:28.342Z,12.60
2018-10-02T17:44:23.132Z,12.50
2018-10-02T17:49:17.750Z,12.40
2018-10-02T17:54:12.640Z,12.30
2018-10-02T17:59:07.093Z,12.10
2018-10-02T18:04:03.086Z,12.00
2018-10-02T18:08:59.295Z,11.90
2018-10-02T18:13:56.974Z,11.80
2018-10-02T18:18:55.637Z,11.70
2018-10-02T18:23:50.212Z,11.60
2018-10-02T18:28:47.530Z,11.50
2018-10-02T18:33:44.700Z,11.60
2018-10-02T18:38:39.861Z,11.70
2018-10-02T18:43:34.519Z,11.90
2018-10-02T18:48:30.474Z,12.10
2018-10-02T18:53:26.300Z,12.20
2018-10-02T18:58:22.332Z,12.30
2018-10-02T19:03:19.078Z,12.30
2018-10-02T19:08:15.235Z,12.40
2018-10-02T19:13:10.750Z,12.40
2018-10-02T19:18:05.419Z,12.40
2018-10-02T19:23:00.361Z,12.50
2018-10-02T19:27:55.167Z,12.60
2018-10-02T19:32:51.158Z,12.60
2018-10-02T19:37:51.245Z,12.70
2018-10-02T19:42:45.961Z,12.80
2018-10-02T19:47:40.414Z,12.90
2018-10-02T19:52:34.973Z,12.80
2018-10-02T19:57:29.462Z,12.80
2018-10-02T20:02:23.908Z,12.80
2018-10-02T20:07:18.523Z,12.80
2018-10-02T20:12:12.924Z,12.80
2018-10-02T20:17:07.632Z,12.80
2018-10-02T20:22:02.110Z,12.80
2018-10-02T20:26:56.532Z,12.80
2018-10-02T20:31:53.047Z,12.80
2018-10-02T20:36:47.632Z,12.90
2018-10-02T20:41:43.636Z,12.90
2018-10-02T20:46:38.151Z,13.00
2018-10-02T20:51:32.923Z,13.00
2018-10-02T20:56:32.884Z,12.90
2018-10-02T21:01:29.472Z,12.90
2018-10-02T21:06:29.068Z,13.00
2018-10-02T21:11:26.478Z,13.00
2018-10-02T21:16:20.978Z,13.00
2018-10-02T21:21:22.846Z,12.90
2018-10-02T21:26:24.208Z,12.90
2018-10-02T21:31:24.093Z,13.00
2018-10-02T21:36:21.716Z,12.90
2018-10-02T21:41:20.405Z,12.80
2018-10-02T21:46:16.847Z,12.70
2018-10-02T21:51:14.422Z,12.60
2018-10-02T21:56:12.229Z,12.60
2018-10-02T22:01:09.996Z,12.70
2018-10-02T22:06:13.005Z,12.70
2018-10-02T22:16:40.985Z,12.90
2018-10-02T22:21:36.813Z,13.10
2018-10-02T22:26:32.959Z,13.20
2018-10-02T22:31:28.280Z,13.20
2018-10-02T22:36:25.899Z,13.30
2018-10-02T22:41:22.353Z,13.40
2018-10-02T22:46:16.953Z,13.40
2018-10-02T22:51:12.663Z,13.50
2018-10-02T22:56:08.686Z,13.50
2018-10-02T23:01:07.050Z,13.60
2018-10-02T23:06:03.066Z,13.60
2018-10-02T23:11:05.553Z,13.60
2018-10-02T23:16:17.525Z,13.50
2018-10-02T23:21:21.749Z,13.60
2018-10-02T23:26:45.781Z,13.60
2018-10-02T23:31:43.662Z,13.50
2018-10-02T23:36:55.077Z,13.30
2018-10-02T23:41:52.123Z,13.30
2018-10-02T23:46:49.661Z,13.30
2018-10-02T23:51:49.237Z,13.30
2018-10-02T23:56:47.446Z,13.40
